Time;durP1;ratioP1;P1;durP2;ratioP2;P2;SDS_P1;SDS_P2;PMS_P1;PMS_P2;Temp;Humidity;BMP_temperature;BMP_pressure;BME280_temperature;BME280_humidity;BME280_pressure;Samples;Min_cycle;Max_cycle;Signal;HPM_P1;HPM_P2
2023/03/16 00:02:20;;;;;;;7.13;3.78;;;;;;;1.46;64.56;98221.44;9848923;30;20503;-79
2023/03/16 00:07:41;;;;;;;8.68;4.60;;;;;;;1.37;64.76;98228.78;9875293;30;20066;-79
2023/03/16 00:13:02;;;;;;;7.80;3.88;;;;;;;1.34;64.74;98235.31;9863492;30;20559;-79
2023/03/16 00:18:28;;;;;;;7.10;3.60;;;;;;;1.36;64.85;98237.56;9862266;30;20121;-79
2023/03/16 00:23:49;;;;;;;7.60;3.47;;;;;;;1.34;65.30;98235.31;9865657;30;20113;-79
2023/03/16 00:29:10;;;;;;;5.95;3.03;;;;;;;1.30;64.83;98225.88;9852261;30;20058;-79
2023/03/16 00:34:33;;;;;;;5.43;3.10;;;;;;;1.26;64.95;98228.94;9864586;30;20060;-79
2023/03/16 00:39:55;;;;;;;6.40;3.08;;;;;;;1.22;64.74;98225.72;9866260;30;20056;-79
2023/03/16 00:45:16;;;;;;;6.85;3.53;;;;;;;1.21;64.80;98232.50;9866429;30;20064;-79
2023/03/16 00:50:37;;;;;;;5.47;2.90;;;;;;;1.20;65.22;98236.50;9866919;30;20109;-79
2023/03/16 00:56:03;;;;;;;4.15;2.80;;;;;;;1.17;64.70;98234.06;9855076;30;20055;-79
2023/03/16 01:01:26;;;;;;;5.40;3.03;;;;;;;1.07;64.98;98236.44;9867643;30;20064;-79
2023/03/16 01:06:48;;;;;;;6.43;3.08;;;;;;;1.00;65.48;98235.00;9869946;30;20055;-79
2023/03/16 01:12:13;;;;;;;5.75;2.88;;;;;;;0.98;64.88;98239.53;9874240;30;20056;-79
2023/03/16 01:17:35;;;;;;;6.10;2.83;;;;;;;1.03;65.29;98249.72;9874212;30;20411;-79
2023/03/16 01:22:56;;;;;;;5.68;2.28;;;;;;;1.01;65.41;98246.75;9874125;30;20056;-79
2023/03/16 01:28:18;;;;;;;7.20;3.08;;;;;;;1.01;65.18;98253.00;9886403;30;20093;-79
2023/03/16 01:33:40;;;;;;;3.80;2.03;;;;;;;1.02;65.42;98253.72;9875658;30;20052;-80
2023/03/16 01:39:05;;;;;;;5.80;1.98;;;;;;;1.01;65.03;98253.00;9863292;30;20051;-79
2023/03/16 01:45:00;;;;;;;5.57;1.95;;;;;;;0.94;65.30;98252.81;9877731;30;20109;-79
2023/03/16 01:50:30;;;;;;;5.57;2.25;;;;;;;0.90;65.88;98255.88;9878395;30;20055;-79
2023/03/16 01:55:54;;;;;;;4.35;2.17;;;;;;;0.87;65.52;98259.66;9883757;30;20062;-80
2023/03/16 02:01:15;;;;;;;7.03;2.67;;;;;;;0.81;65.61;98262.47;9873090;30;20075;-80
2023/03/16 02:06:36;;;;;;;4.95;2.55;;;;;;;0.76;66.06;98262.50;9868973;30;20062;-79
2023/03/16 02:11:58;;;;;;;5.13;2.25;;;;;;;0.73;65.85;98260.78;9872394;30;20055;-80
2023/03/16 02:17:31;;;;;;;5.25;2.50;;;;;;;0.70;65.56;98272.81;9873523;30;20067;-80
2023/03/16 02:22:57;;;;;;;5.85;2.53;;;;;;;0.64;66.33;98275.63;9876354;30;20083;-80
2023/03/16 02:28:31;;;;;;;7.38;2.60;;;;;;;0.61;65.68;98276.66;9873678;30;20112;-80
2023/03/16 02:33:53;;;;;;;4.60;2.60;;;;;;;0.59;65.96;98279.19;9860519;30;20127;-80
2023/03/16 02:39:14;;;;;;;7.80;2.67;;;;;;;0.59;65.97;98276.44;9874524;30;20052;-80
2023/03/16 02:44:42;;;;;;;4.70;2.22;;;;;;;0.55;66.11;98286.94;9876030;30;20064;-80
2023/03/16 02:50:09;;;;;;;7.00;2.55;;;;;;;0.52;65.91;98282.47;9866672;30;20059;-80
2023/03/16 02:55:30;;;;;;;6.65;2.60;;;;;;;0.49;66.19;98287.00;9880456;30;20117;-81
2023/03/16 03:00:52;;;;;;;5.28;2.75;;;;;;;0.49;66.30;98291.75;9879341;30;20060;-80
2023/03/16 03:06:13;;;;;;;6.05;2.60;;;;;;;0.43;66.20;98294.53;9878829;30;20111;-80
2023/03/16 03:11:34;;;;;;;5.47;2.80;;;;;;;0.47;66.56;98297.75;9863528;30;20059;-80
2023/03/16 03:16:56;;;;;;;5.53;2.50;;;;;;;0.42;66.40;98308.81;9876462;30;20066;-80
2023/03/16 03:22:17;;;;;;;6.25;2.72;;;;;;;0.36;66.73;98308.84;9877263;30;20134;-80
2023/03/16 03:27:41;;;;;;;7.05;2.55;;;;;;;0.33;66.18;98317.38;9875843;30;20052;-80
2023/03/16 03:33:04;;;;;;;6.88;3.35;;;;;;;0.40;66.71;98314.06;9877035;30;20087;-80
2023/03/16 03:38:29;;;;;;;7.22;3.00;;;;;;;0.41;66.66;98323.78;9878238;30;20056;-80
2023/03/16 03:43:51;;;;;;;4.75;2.58;;;;;;;0.33;66.76;98320.09;9890037;30;20060;-80
2023/03/16 03:49:12;;;;;;;4.78;2.75;;;;;;;0.23;66.87;98314.94;9876148;30;20114;-80
2023/03/16 03:54:34;;;;;;;6.93;3.10;;;;;;;0.16;66.91;98317.47;9876863;30;20135;-80
2023/03/16 03:59:59;;;;;;;7.07;3.10;;;;;;;0.09;66.54;98321.50;9865235;30;20120;-80
2023/03/16 04:05:41;;;;;;;5.97;3.08;;;;;;;-0.02;67.01;98321.59;9891098;30;20063;-81
2023/03/16 04:11:02;;;;;;;6.85;2.90;;;;;;;-0.03;66.85;98328.34;9875991;30;20487;-80
2023/03/16 04:16:25;;;;;;;4.50;2.40;;;;;;;-0.02;67.22;98329.81;9876696;30;20059;-80
2023/03/16 04:21:49;;;;;;;5.75;2.95;;;;;;;-0.04;67.03;98332.34;9866281;30;20062;-80
2023/03/16 04:27:12;;;;;;;4.72;2.97;;;;;;;-0.02;67.33;98341.53;9863935;30;20064;-80
2023/03/16 04:32:34;;;;;;;9.18;3.05;;;;;;;-0.05;67.29;98339.09;9875887;30;20048;-80
2023/03/16 04:37:55;;;;;;;4.72;2.42;;;;;;;-0.09;67.16;98350.34;9875576;30;20488;-80
2023/03/16 04:43:25;;;;;;;6.82;3.38;;;;;;;-0.13;67.34;98352.59;9870588;30;20066;-80
2023/03/16 04:48:52;;;;;;;8.68;3.28;;;;;;;-0.22;67.22;98352.91;9873512;30;20055;-80
2023/03/16 04:54:14;;;;;;;6.35;2.83;;;;;;;-0.21;67.45;98353.63;9883807;30;20056;-80
2023/03/16 04:59:37;;;;;;;7.22;3.00;;;;;;;-0.19;67.15;98362.09;9872065;30;20128;-81
2023/03/16 05:05:20;;;;;;;4.55;2.67;;;;;;;-0.17;67.40;98356.88;9889111;30;20052;-81
2023/03/16 05:10:43;;;;;;;5.53;3.05;;;;;;;-0.15;67.51;98357.09;9882760;30;20071;-80
2023/03/16 05:16:05;;;;;;;6.75;2.88;;;;;;;-0.11;67.25;98354.81;9876246;30;20141;-79
2023/03/16 05:21:34;;;;;;;7.53;3.50;;;;;;;-0.06;67.79;98348.56;9852108;30;20070;-78
2023/03/16 05:26:58;;;;;;;7.38;4.05;;;;;;;0.14;67.91;98358.44;9852795;30;20135;-78
2023/03/16 05:32:19;;;;;;;7.55;3.65;;;;;;;0.46;67.71;98359.44;9851985;30;20071;-79
2023/03/16 05:37:42;;;;;;;8.70;4.07;;;;;;;1.01;67.67;98354.72;9852111;30;20056;-79
2023/03/16 05:43:08;;;;;;;9.63;4.28;;;;;;;2.86;66.73;98352.19;10677384;24;20059;-82
2023/03/16 05:48:36;;;;;;;6.80;3.80;;;;;;;5.20;65.26;98353.84;9933171;30;20055;-83
2023/03/16 06:00:17;;;;;;;6.82;4.00;;;;;;;9.52;59.86;98359.69;11441766;24;20090;-81
2023/03/16 06:05:45;;;;;;;5.65;4.25;;;;;;;10.68;57.42;98371.66;9938210;29;20039;-83
2023/03/16 06:11:10;;;;;;;11.57;8.05;;;;;;;10.21;57.00;98372.84;9937122;29;20044;-83
2023/03/16 06:16:33;;;;;;;11.48;6.13;;;;;;;13.07;51.92;98372.78;9936666;29;20063;-83
2023/03/16 06:21:55;;;;;;;9.95;6.13;;;;;;;15.32;50.13;98383.53;9923510;29;20070;-83
2023/03/16 06:27:24;;;;;;;9.70;7.00;;;;;;;17.09;45.51;98387.03;9921722;29;20065;-83
2023/03/16 06:33:01;;;;;;;9.65;6.60;;;;;;;18.69;43.18;98393.47;9939919;29;20043;-84
2023/03/16 06:44:38;;;;;;;6.95;4.25;;;;;;;21.11;38.54;98411.97;10274126;24;20116;-84
2023/03/16 06:50:03;;;;;;;13.48;7.30;;;;;;;21.89;33.31;98415.44;9885670;30;20098;-84
2023/03/16 06:55:24;;;;;;;10.63;6.53;;;;;;;22.54;34.37;98429.66;9884769;30;20059;-84
2023/03/16 07:00:45;;;;;;;8.98;5.88;;;;;;;20.10;32.00;98423.69;9884750;30;20564;-84
2023/03/16 07:06:06;;;;;;;6.20;4.78;;;;;;;19.82;32.29;98434.56;9884014;29;20097;-84
2023/03/16 07:11:27;;;;;;;8.45;5.88;;;;;;;20.35;30.67;98439.53;9883799;30;20056;-84
2023/03/16 07:16:51;;;;;;;9.65;5.40;;;;;;;18.58;28.52;98435.38;9884249;30;20085;-84
2023/03/16 07:22:13;;;;;;;6.93;5.18;;;;;;;18.14;31.90;98439.63;9883769;30;20067;-82
2023/03/16 07:27:34;;;;;;;8.57;4.93;;;;;;;17.98;33.05;98444.50;9877281;29;20060;-83
2023/03/16 07:32:58;;;;;;;7.28;5.32;;;;;;;19.88;36.07;98442.56;9847235;30;20052;-84
2023/03/16 07:38:20;;;;;;;6.60;4.82;;;;;;;23.14;30.97;98452.13;9846909;30;20422;-87
2023/03/16 07:43:43;;;;;;;5.82;4.55;;;;;;;27.52;26.17;98446.84;9858341;30;20483;-88
2023/03/16 07:49:08;;;;;;;5.97;4.38;;;;;;;32.42;20.75;98441.22;9859017;30;20056;-86
2023/03/16 07:54:31;;;;;;;5.38;3.72;;;;;;;35.11;16.49;98452.72;9858606;30;20059;-85
2023/03/16 07:59:53;;;;;;;5.45;3.70;;;;;;;34.39;10.92;98444.59;9846347;30;20068;-87
2023/03/16 08:05:15;;;;;;;5.30;3.40;;;;;;;35.07;11.93;98452.13;9884322;30;20059;-84
2023/03/16 08:10:40;;;;;;;4.57;3.00;;;;;;;35.52;9.93;98460.66;9872716;30;20066;-84
2023/03/16 08:16:12;;;;;;;5.47;3.60;;;;;;;34.71;9.96;98466.50;9879961;29;20133;-80
2023/03/16 08:21:36;;;;;;;4.53;3.33;;;;;;;36.60;9.76;98455.25;9906759;30;20059;-81
2023/03/16 08:27:19;;;;;;;5.90;3.97;;;;;;;36.87;9.02;98455.28;9872191;30;20083;-81
2023/03/16 08:32:51;;;;;;;7.35;4.45;;;;;;;35.30;9.21;98444.38;9905334;30;20067;-80
2023/03/16 08:38:13;;;;;;;5.60;3.53;;;;;;;33.92;9.85;98459.09;9869318;30;20067;-82
2023/03/16 08:43:36;;;;;;;4.60;3.28;;;;;;;35.74;9.92;98465.97;9888094;30;20071;-83
2023/03/16 08:48:57;;;;;;;4.80;2.60;;;;;;;38.43;8.53;98476.16;9876945;30;20058;-84
2023/03/16 08:54:21;;;;;;;4.05;2.17;;;;;;;36.98;7.53;98468.09;9845153;30;20056;-92
2023/03/16 08:59:43;;;;;;;4.35;2.42;;;;;;;34.44;8.82;98456.84;9857467;30;20446;-83
2023/03/16 09:05:08;;;;;;;6.03;3.05;;;;;;;34.26;8.95;98460.00;9857694;30;20411;-83
2023/03/16 09:10:32;;;;;;;4.78;3.17;;;;;;;36.92;8.39;98471.16;9891513;30;20055;-84
2023/03/16 09:15:53;;;;;;;6.95;3.67;;;;;;;37.62;7.68;98458.25;9883492;30;20140;-83
2023/03/16 09:21:14;;;;;;;7.10;3.80;;;;;;;36.00;7.91;98464.69;9884935;30;20059;-83
2023/03/16 09:26:36;;;;;;;7.78;2.28;;;;;;;34.58;8.31;98470.38;9886089;29;20132;-85
2023/03/16 09:31:57;;;;;;;5.00;1.98;;;;;;;34.57;8.43;98480.53;9849877;30;20526;-85
2023/03/16 09:37:18;;;;;;;5.20;2.38;;;;;;;33.75;8.80;98487.50;9850726;30;20464;-84
2023/03/16 09:42:43;;;;;;;5.35;2.40;;;;;;;33.30;8.76;98481.56;9866125;30;20070;-84
2023/03/16 09:48:05;;;;;;;5.35;2.38;;;;;;;30.33;11.22;98480.94;9874591;30;20059;-85
2023/03/16 09:53:28;;;;;;;4.63;1.80;;;;;;;33.85;9.71;98490.25;9898523;30;20055;-83
2023/03/16 09:58:49;;;;;;;3.05;1.67;;;;;;;34.48;8.65;98482.16;9891582;30;20082;-83
2023/03/16 10:04:27;;;;;;;3.95;1.70;;;;;;;35.85;8.09;98486.78;9866421;30;20452;-82
2023/03/16 10:09:53;;;;;;;5.82;1.55;;;;;;;36.66;7.62;98484.88;9899218;30;20078;-83
2023/03/16 10:15:25;;;;;;;3.25;1.45;;;;;;;36.62;6.80;98479.16;9895514;30;20434;-81
2023/03/16 10:20:47;;;;;;;3.28;1.15;;;;;;;35.42;7.26;98478.25;9898528;30;20051;-84
2023/03/16 10:26:17;;;;;;;3.92;1.27;;;;;;;33.64;8.27;98476.81;9885399;29;20078;-82
2023/03/16 10:31:40;;;;;;;4.47;1.38;;;;;;;35.86;8.41;98476.59;9897014;30;20063;-82
2023/03/16 10:37:01;;;;;;;2.45;1.08;;;;;;;38.12;7.06;98473.47;9885784;30;20220;-82
2023/03/16 10:42:29;;;;;;;4.28;1.10;;;;;;;38.66;5.85;98468.06;9898307;30;20067;-84
2023/03/16 10:48:32;;;;;;;3.67;1.13;;;;;;;40.19;5.27;98464.66;9885311;30;20419;-82
2023/03/16 10:54:14;;;;;;;2.88;0.88;;;;;;;38.52;5.42;98459.09;9909858;30;20062;-83
2023/03/16 10:59:37;;;;;;;4.82;1.75;;;;;;;38.11;5.57;98454.56;9873029;30;20197;-82
2023/03/16 11:04:57;;;;;;;5.22;1.35;;;;;;;33.51;7.13;98447.34;9884899;30;20616;-81
2023/03/16 11:10:28;;;;;;;4.00;1.70;;;;;;;27.59;9.78;98440.47;9896499;30;20078;-79
2023/03/16 11:16:00;;;;;;;7.25;2.00;;;;;;;23.86;12.50;98426.34;9871701;30;20142;-79
2023/03/16 11:21:24;;;;;;;5.43;2.00;;;;;;;21.60;15.23;98425.09;9897147;30;20478;-79
2023/03/16 11:26:46;;;;;;;5.70;1.90;;;;;;;19.66;17.24;98416.88;9908308;29;20517;-79
2023/03/16 11:32:15;;;;;;;6.65;2.35;;;;;;;18.75;18.86;98419.94;9883926;30;20142;-79
2023/03/16 11:37:42;;;;;;;4.82;1.80;;;;;;;17.19;19.27;98420.69;9883477;30;20503;-80
2023/03/16 11:43:30;;;;;;;2.85;1.55;;;;;;;16.82;20.96;98422.28;9895456;30;20138;-81
2023/03/16 11:49:13;;;;;;;8.95;2.10;;;;;;;15.78;20.96;98409.41;9896809;30;20070;-81
2023/03/16 11:54:53;;;;;;;5.10;1.17;;;;;;;16.16;20.54;98405.97;9908432;30;20066;-78
2023/03/16 12:00:34;;;;;;;4.10;1.23;;;;;;;16.26;20.04;98398.06;9895313;30;20059;-81
2023/03/16 12:06:19;;;;;;;5.95;1.30;;;;;;;15.92;20.86;98391.25;9907531;30;20055;-79
2023/03/16 12:11:53;;;;;;;4.10;1.63;;;;;;;15.76;22.72;98383.97;9908286;30;20487;-78
2023/03/16 12:17:22;;;;;;;6.32;2.00;;;;;;;15.31;22.38;98382.06;9894989;30;20113;-79
2023/03/16 12:22:54;;;;;;;6.47;1.77;;;;;;;14.89;24.21;98383.06;9895162;30;20059;-78
2023/03/16 12:28:20;;;;;;;4.93;2.00;;;;;;;15.36;23.38;98377.41;9873763;29;20487;-78
2023/03/16 12:34:07;;;;;;;3.13;1.45;;;;;;;14.48;23.29;98366.53;9897042;30;20138;-78
2023/03/16 12:39:46;;;;;;;6.88;1.95;;;;;;;13.89;23.46;98370.47;9892650;30;20083;-78
2023/03/16 12:45:22;;;;;;;5.85;1.80;;;;;;;13.51;24.75;98374.28;9916491;30;20060;-78
2023/03/16 12:50:48;;;;;;;4.93;1.60;;;;;;;13.66;25.00;98362.69;9905017;30;20550;-78
2023/03/16 12:56:11;;;;;;;4.18;1.83;;;;;;;13.21;24.68;98365.34;9893178;30;20057;-77
2023/03/16 13:01:41;;;;;;;6.03;1.85;;;;;;;13.25;24.71;98351.59;9898478;29;20495;-78
2023/03/16 13:07:13;;;;;;;6.25;2.00;;;;;;;12.89;24.82;98353.38;9883151;30;20516;-77
2023/03/16 13:12:37;;;;;;;5.05;1.40;;;;;;;13.02;25.47;98354.19;9883830;30;20062;-77
2023/03/16 13:18:16;;;;;;;5.32;1.90;;;;;;;12.67;24.51;98354.66;9896171;30;20059;-77
2023/03/16 13:23:57;;;;;;;6.57;1.60;;;;;;;12.13;24.83;98357.91;9919847;30;20147;-77
2023/03/16 13:29:24;;;;;;;3.78;1.42;;;;;;;11.90;24.71;98352.03;9868658;30;20401;-77
2023/03/16 13:34:49;;;;;;;3.78;1.75;;;;;;;11.72;25.43;98346.56;9857348;30;20078;-77
2023/03/16 13:40:21;;;;;;;7.95;2.10;;;;;;;11.85;25.96;98351.00;9847501;30;20075;-78
2023/03/16 13:45:43;;;;;;;5.68;1.50;;;;;;;11.50;25.87;98330.25;9895793;30;20071;-77
2023/03/16 13:51:04;;;;;;;3.50;1.42;;;;;;;11.38;25.84;98325.22;9892633;29;20056;-77
2023/03/16 13:56:27;;;;;;;5.05;1.73;;;;;;;11.28;26.58;98323.72;9867163;30;20105;-77
2023/03/16 14:08:17;;;;;;;5.78;1.92;;;;;;;11.12;27.97;98310.06;9946181;30;20039;-80
2023/03/16 14:14:27;;;;;;;2.78;1.23;;;;;;;11.01;27.91;98307.81;9928099;29;20063;-80
2023/03/16 14:20:09;;;;;;;4.10;1.63;;;;;;;10.68;27.88;98298.31;9953965;29;20066;-80
2023/03/16 14:25:52;;;;;;;3.50;1.70;;;;;;;10.92;27.98;98291.78;9897898;30;20086;-77
2023/03/16 14:31:18;;;;;;;5.20;1.65;;;;;;;10.84;28.28;98280.00;9917583;30;20055;-77
2023/03/16 14:36:39;;;;;;;5.75;2.00;;;;;;;10.47;29.14;98280.03;9905236;30;20067;-77
2023/03/16 14:42:03;;;;;;;6.60;2.00;;;;;;;10.23;29.42;98278.91;9892577;30;20059;-77
2023/03/16 14:47:27;;;;;;;6.30;2.13;;;;;;;9.89;29.59;98268.56;9889076;30;20108;-77
2023/03/16 14:52:49;;;;;;;8.07;1.67;;;;;;;10.07;29.77;98255.31;9902907;30;20491;-77
2023/03/16 14:58:11;;;;;;;6.28;1.77;;;;;;;9.97;30.18;98255.25;9890327;30;20487;-76
2023/03/16 15:03:34;;;;;;;5.65;1.90;;;;;;;9.87;30.44;98268.41;9901421;30;20529;-77
2023/03/16 15:08:55;;;;;;;4.70;1.70;;;;;;;9.82;31.03;98266.63;9889571;30;20406;-78
2023/03/16 15:15:14;;;;;;;5.75;1.85;;;;;;;9.74;31.12;98265.97;9888981;30;20062;-78
2023/03/16 15:19:57;;;;;;;4.63;2.00;;;;;;;9.75;31.29;98259.84;9916615;29;20055;-77
2023/03/16 15:25:35;;;;;;;5.80;2.05;;;;;;;9.67;31.79;98264.03;9889850;30;20059;-76
2023/03/16 15:30:57;;;;;;;4.57;1.70;;;;;;;9.58;31.71;98261.91;9911322;30;20114;-76
2023/03/16 15:36:19;;;;;;;6.60;1.90;;;;;;;9.42;31.75;98253.72;9886555;30;20120;-76
2023/03/16 15:41:42;;;;;;;5.75;1.80;;;;;;;9.39;32.19;98249.31;9897923;30;20497;-75
2023/03/16 15:47:08;;;;;;;4.30;1.88;;;;;;;9.38;32.43;98263.81;9896660;30;20059;-75
2023/03/16 15:52:33;;;;;;;4.85;1.73;;;;;;;9.14;33.55;98257.75;9883334;30;20406;-75
2023/03/16 15:57:57;;;;;;;5.45;1.73;;;;;;;8.97;33.45;98257.00;9887362;30;20062;-76
2023/03/16 16:03:18;;;;;;;6.65;1.80;;;;;;;8.98;33.92;98253.66;9885226;30;20079;-76
2023/03/16 16:08:40;;;;;;;5.65;1.60;;;;;;;8.70;33.80;98243.72;9892379;29;20043;-81
2023/03/16 16:22:26;;;;;;;4.28;1.67;;;;;;;8.32;35.73;98239.19;9962873;29;20418;-80
2023/03/16 16:27:54;;;;;;;4.10;1.80;;;;;;;8.21;35.19;98233.34;9966355;29;20057;-80
2023/03/16 16:33:43;;;;;;;4.15;1.40;;;;;;;8.03;35.54;98238.09;9945105;29;20059;-75
2023/03/16 16:39:06;;;;;;;5.43;1.63;;;;;;;7.97;35.86;98252.22;9947577;29;20080;-79
2023/03/16 16:44:58;;;;;;;3.05;1.30;;;;;;;7.84;35.19;98252.50;9974549;29;20145;-81
2023/03/16 16:50:47;;;;;;;5.07;1.58;;;;;;;7.64;36.18;98239.63;10333761;24;20051;-76
2023/03/16 16:56:16;;;;;;;2.95;1.40;;;;;;;7.41;36.04;98246.00;9888822;30;20116;-76
2023/03/16 17:01:37;;;;;;;4.18;1.88;;;;;;;7.37;35.94;98239.38;9889279;30;20059;-78
2023/03/16 17:07:00;;;;;;;4.05;1.90;;;;;;;7.31;36.16;98249.94;9872443;30;20051;-77
2023/03/16 17:12:22;;;;;;;6.95;1.73;;;;;;;7.18;36.81;98251.66;9887330;30;20217;-77
2023/03/16 17:17:43;;;;;;;5.05;1.75;;;;;;;7.19;37.28;98252.38;9874946;30;20052;-76
2023/03/16 17:23:17;;;;;;;7.05;2.30;;;;;;;7.13;37.13;98233.16;9887222;30;20097;-77
2023/03/16 17:28:40;;;;;;;8.15;2.90;;;;;;;7.10;37.45;98247.41;9876842;30;20062;-76
2023/03/16 17:34:02;;;;;;;11.32;3.28;;;;;;;7.03;37.14;98251.69;9862385;30;20054;-77
2023/03/16 17:39:25;;;;;;;5.72;2.33;;;;;;;7.10;37.20;98255.75;9887695;30;20078;-77
2023/03/16 17:44:49;;;;;;;7.40;2.40;;;;;;;6.98;37.82;98249.13;9887697;30;20055;-77
2023/03/16 17:50:23;;;;;;;7.35;1.80;;;;;;;6.77;38.25;98241.75;9898954;29;20059;-78
2023/03/16 17:56:13;;;;;;;9.93;2.47;;;;;;;6.64;38.77;98235.66;10058912;24;20042;31
2023/03/16 18:01:36;;;;;;;6.90;2.30;;;;;;;6.50;38.63;98230.31;9810995;30;20056;-78
2023/03/16 18:06:57;;;;;;;5.70;2.33;;;;;;;6.42;39.14;98234.38;9781354;30;20049;-79
2023/03/16 18:12:53;;;;;;;7.68;2.53;;;;;;;6.35;40.52;98235.84;9767521;30;20493;-77
2023/03/16 18:18:26;;;;;;;8.10;2.85;;;;;;;6.35;40.55;98243.44;9766314;30;20576;-78
2023/03/16 18:23:51;;;;;;;6.65;2.75;;;;;;;6.32;40.72;98239.75;9765697;30;20061;-78
2023/03/16 18:29:13;;;;;;;6.25;2.53;;;;;;;6.19;40.90;98231.63;9754599;30;20107;-77
2023/03/16 18:34:35;;;;;;;6.93;2.80;;;;;;;6.13;40.52;98231.06;9765222;30;20057;-77
2023/03/16 18:39:56;;;;;;;8.32;2.65;;;;;;;6.00;41.43;98231.97;9752566;30;20061;-77
2023/03/16 18:45:26;;;;;;;8.32;2.72;;;;;;;5.96;41.38;98243.41;9753195;30;20056;-79
2023/03/16 18:51:17;;;;;;;7.57;3.00;;;;;;;5.96;41.35;98240.63;9757766;30;20061;-78
2023/03/16 18:57:45;;;;;;;10.50;3.22;;;;;;;5.94;41.87;98232.13;9756361;30;20049;-78
2023/03/16 19:03:12;;;;;;;8.57;3.22;;;;;;;5.90;41.29;98233.78;9766131;30;20068;-80
2023/03/16 19:08:40;;;;;;;8.63;3.22;;;;;;;5.83;41.15;98229.69;9770907;30;20099;-80
2023/03/16 21:02:28;;;;;;;10.90;5.72;;;;;;;5.16;44.08;98192.94;11109332;24;20107;-82
2023/03/16 21:07:51;;;;;;;11.02;5.93;;;;;;;5.14;43.97;98190.72;9902335;30;20074;-79
2023/03/16 21:13:34;;;;;;;12.57;5.93;;;;;;;5.18;43.79;98198.66;9881605;30;20051;-76
2023/03/16 21:18:54;;;;;;;12.43;5.95;;;;;;;5.12;43.63;98189.78;9884043;30;20086;-78
2023/03/16 21:24:27;;;;;;;13.98;5.72;;;;;;;5.13;43.95;98188.50;9860896;29;20488;-77
2023/03/16 21:30:23;;;;;;;9.48;5.55;;;;;;;5.06;43.79;98180.91;9879357;30;20078;-77
2023/03/16 21:35:57;;;;;;;11.65;5.65;;;;;;;5.00;43.99;98185.84;9867718;30;20072;-78
2023/03/16 21:41:49;;;;;;;12.32;5.88;;;;;;;4.96;43.62;98183.44;9861841;30;20486;-80
2023/03/16 21:47:22;;;;;;;12.07;5.82;;;;;;;4.82;43.87;98176.53;9853375;30;20070;-78
2023/03/16 21:52:44;;;;;;;12.13;5.60;;;;;;;4.73;44.26;98174.28;9863642;30;20086;-79
2023/03/16 21:58:04;;;;;;;10.98;5.68;;;;;;;4.57;44.08;98156.88;9864977;30;20180;-79
2023/03/16 22:03:27;;;;;;;11.68;5.85;;;;;;;4.51;44.27;98170.09;9864309;30;20082;-80
2023/03/16 22:16:39;;;;;;;12.95;5.80;;;;;;;4.24;45.44;98150.19;9835377;30;20408;-79
2023/03/16 22:22:02;;;;;;;10.63;5.22;;;;;;;4.22;44.10;98158.28;9798572;30;20105;-80
2023/03/16 22:27:25;;;;;;;11.43;5.72;;;;;;;4.18;44.85;98163.44;9810276;30;20175;-80
2023/03/16 22:32:47;;;;;;;11.77;5.70;;;;;;;4.25;45.24;98169.03;9821748;30;20514;-79
2023/03/16 22:38:15;;;;;;;12.73;5.93;;;;;;;4.27;45.79;98183.03;9809416;30;20079;-79
2023/03/16 22:43:37;;;;;;;12.80;6.15;;;;;;;4.27;45.54;98187.81;9807989;30;20075;-79
2023/03/16 22:48:58;;;;;;;15.55;6.32;;;;;;;4.26;45.73;98183.56;9817537;30;20117;-79
2023/03/16 22:54:20;;;;;;;11.02;6.15;;;;;;;4.27;45.29;98179.53;9848609;30;20052;-80
2023/03/16 22:59:41;;;;;;;12.73;6.55;;;;;;;4.26;45.89;98170.50;9861568;30;20083;-79
2023/03/16 23:05:23;;;;;;;12.15;6.22;;;;;;;4.25;46.01;98174.53;9861447;30;20087;-79
2023/03/16 23:10:44;;;;;;;13.43;6.70;;;;;;;4.16;46.30;98169.50;9850587;30;20070;-79
2023/03/16 23:16:09;;;;;;;11.30;6.30;;;;;;;4.17;46.35;98165.47;9860909;30;20048;-79
2023/03/16 23:21:30;;;;;;;12.73;6.43;;;;;;;4.13;46.38;98167.06;9860581;30;20060;-80
2023/03/16 23:26:51;;;;;;;12.02;6.30;;;;;;;4.07;46.45;98141.63;9846265;30;20060;-79
2023/03/16 23:32:42;;;;;;;16.00;6.10;;;;;;;4.07;46.27;98142.34;9864560;30;20060;-79
2023/03/16 23:38:03;;;;;;;12.68;6.45;;;;;;;4.07;46.96;98136.09;9860125;30;20059;-79
2023/03/16 23:43:24;;;;;;;12.43;6.18;;;;;;;4.06;46.19;98140.88;9847362;30;20110;-79
2023/03/16 23:48:45;;;;;;;13.05;6.57;;;;;;;4.01;46.41;98133.47;9859874;30;20109;-79
2023/03/16 23:54:17;;;;;;;11.25;6.20;;;;;;;4.01;46.29;98139.72;9860895;30;20063;-79
2023/03/16 23:59:38;;;;;;;14.23;6.25;;;;;;;3.99;46.24;98131.25;9859653;30;20518;-79
